sensor_id;sensor_type;location;lat;lon;timestamp;pressure;altitude;pressure_sealevel;temperature;humidity
51289;BME280;37372;52.294;5.152;2024-02-04T00:01:34;102406.06;;;8.45;87.37
51289;BME280;37372;52.294;5.152;2024-02-04T00:03:59;102398.19;;;8.45;87.71
51289;BME280;37372;52.294;5.152;2024-02-04T00:06:24;102392.97;;;8.45;87.65
51289;BME280;37372;52.294;5.152;2024-02-04T00:08:50;102401.63;;;8.44;87.77
51289;BME280;37372;52.294;5.152;2024-02-04T00:11:15;102397.53;;;8.51;87.59
51289;BME280;37372;52.294;5.152;2024-02-04T00:13:42;102395.41;;;8.41;87.33
51289;BME280;37372;52.294;5.152;2024-02-04T00:16:08;102408.66;;;8.45;87.50
51289;BME280;37372;52.294;5.152;2024-02-04T00:18:36;102396.53;;;8.47;86.95
51289;BME280;37372;52.294;5.152;2024-02-04T00:21:11;102405.09;;;8.43;87.35
51289;BME280;37372;52.294;5.152;2024-02-04T00:23:37;102401.63;;;8.44;86.99
51289;BME280;37372;52.294;5.152;2024-02-04T00:26:02;102399.13;;;8.46;86.84
51289;BME280;37372;52.294;5.152;2024-02-04T00:28:28;102392.00;;;8.43;87.13
51289;BME280;37372;52.294;5.152;2024-02-04T00:30:54;102382.22;;;8.39;86.86
51289;BME280;37372;52.294;5.152;2024-02-04T00:33:21;102395.31;;;8.39;87.16
51289;BME280;37372;52.294;5.152;2024-02-04T00:35:51;102392.97;;;8.45;87.08
51289;BME280;37372;52.294;5.152;2024-02-04T00:38:17;102384.06;;;8.42;86.99
51289;BME280;37372;52.294;5.152;2024-02-04T00:40:42;102385.91;;;8.44;86.99
51289;BME280;37372;52.294;5.152;2024-02-04T00:43:08;102377.19;;;8.44;87.29
51289;BME280;37372;52.294;5.152;2024-02-04T00:45:34;102381.28;;;8.37;87.00
51289;BME280;37372;52.294;5.152;2024-02-04T00:48:00;102380.22;;;8.32;87.39
51289;BME280;37372;52.294;5.152;2024-02-04T00:50:26;102384.16;;;8.43;87.02
51289;BME280;37372;52.294;5.152;2024-02-04T00:52:52;102380.47;;;8.38;87.21
51289;BME280;37372;52.294;5.152;2024-02-04T00:55:20;102376.44;;;8.46;86.62
51289;BME280;37372;52.294;5.152;2024-02-04T00:57:46;102370.97;;;8.42;87.06
51289;BME280;37372;52.294;5.152;2024-02-04T01:00:11;102375.16;;;8.37;87.01
51289;BME280;37372;52.294;5.152;2024-02-04T01:02:38;102374.50;;;8.42;86.17
51289;BME280;37372;52.294;5.152;2024-02-04T01:05:07;102371.69;;;8.38;86.25
51289;BME280;37372;52.294;5.152;2024-02-04T01:07:36;102380.84;;;8.25;85.73
51289;BME280;37372;52.294;5.152;2024-02-04T01:10:02;102370.91;;;8.16;85.66
51289;BME280;37372;52.294;5.152;2024-02-04T01:12:28;102378.47;;;8.08;85.45
51289;BME280;37372;52.294;5.152;2024-02-04T01:14:53;102380.84;;;8.02;85.38
51289;BME280;37372;52.294;5.152;2024-02-04T01:17:19;102374.31;;;7.91;85.49
51289;BME280;37372;52.294;5.152;2024-02-04T01:19:44;102377.72;;;7.88;85.49
51289;BME280;37372;52.294;5.152;2024-02-04T01:22:13;102383.81;;;7.89;85.51
51289;BME280;37372;52.294;5.152;2024-02-04T01:24:38;102385.09;;;7.98;85.07
51289;BME280;37372;52.294;5.152;2024-02-04T01:27:04;102382.53;;;8.00;84.74
51289;BME280;37372;52.294;5.152;2024-02-04T01:29:30;102392.47;;;7.88;84.32
51289;BME280;37372;52.294;5.152;2024-02-04T01:31:56;102385.72;;;7.93;84.37
51289;BME280;37372;52.294;5.152;2024-02-04T01:34:22;102382.03;;;7.88;84.13
51289;BME280;37372;52.294;5.152;2024-02-04T01:36:48;102389.81;;;7.86;83.83
51289;BME280;37372;52.294;5.152;2024-02-04T01:39:13;102381.81;;;7.81;84.61
51289;BME280;37372;52.294;5.152;2024-02-04T01:41:42;102363.34;;;7.78;84.25
51289;BME280;37372;52.294;5.152;2024-02-04T01:44:10;102366.63;;;7.73;84.10
51289;BME280;37372;52.294;5.152;2024-02-04T01:46:35;102380.59;;;7.73;84.29
51289;BME280;37372;52.294;5.152;2024-02-04T01:49:01;102381.34;;;7.71;84.25
51289;BME280;37372;52.294;5.152;2024-02-04T01:51:30;102375.09;;;7.65;84.71
51289;BME280;37372;52.294;5.152;2024-02-04T01:53:55;102382.97;;;7.67;84.84
51289;BME280;37372;52.294;5.152;2024-02-04T01:56:21;102382.97;;;7.67;84.13
51289;BME280;37372;52.294;5.152;2024-02-04T01:58:47;102381.28;;;7.69;83.42
51289;BME280;37372;52.294;5.152;2024-02-04T02:01:14;102379.41;;;7.65;84.00
51289;BME280;37372;52.294;5.152;2024-02-04T02:03:42;102389.84;;;7.65;84.13
51289;BME280;37372;52.294;5.152;2024-02-04T02:06:08;102389.34;;;7.74;83.57
51289;BME280;37372;52.294;5.152;2024-02-04T02:08:34;102391.00;;;7.72;82.86
51289;BME280;37372;52.294;5.152;2024-02-04T02:11:14;102389.16;;;7.69;83.02
51289;BME280;37372;52.294;5.152;2024-02-04T02:13:41;102387.75;;;7.77;82.14
51289;BME280;37372;52.294;5.152;2024-02-04T02:16:14;102375.97;;;7.66;82.09
51289;BME280;37372;52.294;5.152;2024-02-04T02:18:47;102369.84;;;7.65;81.95
51289;BME280;37372;52.294;5.152;2024-02-04T02:24:16;102359.03;;;7.56;82.41
51289;BME280;37372;52.294;5.152;2024-02-04T02:26:44;102370.00;;;7.47;82.57
51289;BME280;37372;52.294;5.152;2024-02-04T02:29:10;102361.78;;;7.38;82.47
51289;BME280;37372;52.294;5.152;2024-02-04T02:31:37;102366.19;;;7.39;82.39
51289;BME280;37372;52.294;5.152;2024-02-04T02:34:03;102358.25;;;7.38;82.69
51289;BME280;37372;52.294;5.152;2024-02-04T02:36:32;102366.03;;;7.36;82.73
51289;BME280;37372;52.294;5.152;2024-02-04T02:39:15;102366.50;;;7.26;83.47
51289;BME280;37372;52.294;5.152;2024-02-04T02:41:44;102371.66;;;7.24;83.72
51289;BME280;37372;52.294;5.152;2024-02-04T02:44:12;102355.41;;;7.31;83.62
51289;BME280;37372;52.294;5.152;2024-02-04T02:46:38;102359.88;;;7.34;83.71
51289;BME280;37372;52.294;5.152;2024-02-04T02:49:08;102364.94;;;7.31;83.80
51289;BME280;37372;52.294;5.152;2024-02-04T02:51:33;102361.03;;;7.20;83.70
51289;BME280;37372;52.294;5.152;2024-02-04T02:53:58;102370.66;;;7.21;83.71
51289;BME280;37372;52.294;5.152;2024-02-04T02:56:26;102365.44;;;7.21;83.85
51289;BME280;37372;52.294;5.152;2024-02-04T02:58:52;102367.72;;;7.13;83.75
51289;BME280;37372;52.294;5.152;2024-02-04T03:01:20;102376.88;;;7.24;83.64
51289;BME280;37372;52.294;5.152;2024-02-04T03:03:46;102375.88;;;7.21;84.29
51289;BME280;37372;52.294;5.152;2024-02-04T03:06:11;102368.28;;;7.27;84.10
51289;BME280;37372;52.294;5.152;2024-02-04T03:08:36;102359.66;;;7.29;84.31
51289;BME280;37372;52.294;5.152;2024-02-04T03:11:03;102364.00;;;7.29;84.46
51289;BME280;37372;52.294;5.152;2024-02-04T03:13:28;102354.66;;;7.34;84.33
51289;BME280;37372;52.294;5.152;2024-02-04T03:15:55;102359.16;;;7.38;84.32
51289;BME280;37372;52.294;5.152;2024-02-04T03:18:20;102347.88;;;7.39;84.37
51289;BME280;37372;52.294;5.152;2024-02-04T03:20:46;102360.97;;;7.39;84.43
51289;BME280;37372;52.294;5.152;2024-02-04T03:23:11;102352.16;;;7.37;84.23
51289;BME280;37372;52.294;5.152;2024-02-04T03:25:40;102338.97;;;7.34;84.45
51289;BME280;37372;52.294;5.152;2024-02-04T03:28:06;102353.69;;;7.32;84.21
51289;BME280;37372;52.294;5.152;2024-02-04T03:30:32;102348.44;;;7.32;83.69
51289;BME280;37372;52.294;5.152;2024-02-04T03:32:58;102341.69;;;7.37;83.59
51289;BME280;37372;52.294;5.152;2024-02-04T03:35:24;102355.59;;;7.36;83.58
51289;BME280;37372;52.294;5.152;2024-02-04T03:37:50;102372.94;;;7.34;83.10
51289;BME280;37372;52.294;5.152;2024-02-04T03:40:18;102371.63;;;7.45;82.47
51289;BME280;37372;52.294;5.152;2024-02-04T03:42:49;102356.44;;;7.35;82.76
51289;BME280;37372;52.294;5.152;2024-02-04T03:45:15;102374.97;;;7.41;82.39
51289;BME280;37372;52.294;5.152;2024-02-04T03:47:41;102368.72;;;7.38;81.87
51289;BME280;37372;52.294;5.152;2024-02-04T03:50:07;102374.13;;;7.42;80.56
51289;BME280;37372;52.294;5.152;2024-02-04T03:52:33;102365.31;;;7.40;80.04
51289;BME280;37372;52.294;5.152;2024-02-04T03:54:58;102375.00;;;7.43;79.29
51289;BME280;37372;52.294;5.152;2024-02-04T03:57:24;102383.19;;;7.50;78.99
51289;BME280;37372;52.294;5.152;2024-02-04T03:59:50;102381.09;;;7.42;78.91
51289;BME280;37372;52.294;5.152;2024-02-04T04:02:15;102372.56;;;7.46;78.02
51289;BME280;37372;52.294;5.152;2024-02-04T04:04:40;102375.09;;;7.44;77.68
51289;BME280;37372;52.294;5.152;2024-02-04T04:07:12;102349.75;;;7.42;77.89
51289;BME280;37372;52.294;5.152;2024-02-04T04:09:38;102352.47;;;7.45;77.78
51289;BME280;37372;52.294;5.152;2024-02-04T04:12:10;102337.88;;;7.29;78.25
51289;BME280;37372;52.294;5.152;2024-02-04T04:14:36;102342.56;;;7.38;78.30
51289;BME280;37372;52.294;5.152;2024-02-04T04:17:01;102348.00;;;7.42;77.15
51289;BME280;37372;52.294;5.152;2024-02-04T04:19:27;102344.13;;;7.32;78.30
51289;BME280;37372;52.294;5.152;2024-02-04T04:21:52;102335.44;;;7.33;77.34
51289;BME280;37372;52.294;5.152;2024-02-04T04:24:22;102348.59;;;7.35;77.34
51289;BME280;37372;52.294;5.152;2024-02-04T04:26:48;102343.94;;;7.28;77.44
51289;BME280;37372;52.294;5.152;2024-02-04T04:29:13;102339.69;;;7.30;76.88
51289;BME280;37372;52.294;5.152;2024-02-04T04:31:38;102333.84;;;7.37;76.30
51289;BME280;37372;52.294;5.152;2024-02-04T04:34:03;102333.84;;;7.37;76.99
51289;BME280;37372;52.294;5.152;2024-02-04T04:36:29;102335.34;;;7.30;76.98
51289;BME280;37372;52.294;5.152;2024-02-04T04:38:55;102333.53;;;7.29;77.40
51289;BME280;37372;52.294;5.152;2024-02-04T04:41:20;102330.09;;;7.30;77.58
51289;BME280;37372;52.294;5.152;2024-02-04T04:43:52;102319.53;;;7.27;78.22
51289;BME280;37372;52.294;5.152;2024-02-04T04:46:17;102330.75;;;7.25;78.86
51289;BME280;37372;52.294;5.152;2024-02-04T04:48:43;102325.38;;;7.22;79.04
51289;BME280;37372;52.294;5.152;2024-02-04T04:51:10;102322.78;;;7.22;79.36
51289;BME280;37372;52.294;5.152;2024-02-04T04:53:37;102313.41;;;7.27;79.47
51289;BME280;37372;52.294;5.152;2024-02-04T04:56:03;102316.78;;;7.24;79.73
51289;BME280;37372;52.294;5.152;2024-02-04T04:58:29;102308.00;;;7.22;80.41
51289;BME280;37372;52.294;5.152;2024-02-04T05:00:54;102305.44;;;7.24;80.12
51289;BME280;37372;52.294;5.152;2024-02-04T05:03:19;102306.66;;;7.32;79.98
51289;BME280;37372;52.294;5.152;2024-02-04T05:05:45;102307.41;;;7.29;79.97
51289;BME280;37372;52.294;5.152;2024-02-04T05:08:14;102307.94;;;7.21;81.11
51289;BME280;37372;52.294;5.152;2024-02-04T05:10:42;102309.31;;;7.33;80.55
51289;BME280;37372;52.294;5.152;2024-02-04T05:13:08;102302.78;;;7.22;80.88
51289;BME280;37372;52.294;5.152;2024-02-04T05:15:34;102310.72;;;7.25;81.18
51289;BME280;37372;52.294;5.152;2024-02-04T05:18:00;102314.31;;;7.27;80.61
51289;BME280;37372;52.294;5.152;2024-02-04T05:20:25;102315.09;;;7.25;81.24
51289;BME280;37372;52.294;5.152;2024-02-04T05:22:50;102310.69;;;7.24;81.28
51289;BME280;37372;52.294;5.152;2024-02-04T05:25:16;102308.81;;;7.21;81.44
51289;BME280;37372;52.294;5.152;2024-02-04T05:27:50;102300.03;;;7.19;81.71
51289;BME280;37372;52.294;5.152;2024-02-04T05:30:16;102290.81;;;7.27;81.70
51289;BME280;37372;52.294;5.152;2024-02-04T05:32:41;102287.28;;;7.27;81.31
51289;BME280;37372;52.294;5.152;2024-02-04T05:35:10;102264.84;;;7.32;81.33
51289;BME280;37372;52.294;5.152;2024-02-04T05:37:35;102273.34;;;7.26;81.67
51289;BME280;37372;52.294;5.152;2024-02-04T05:40:02;102288.41;;;7.33;81.13
51289;BME280;37372;52.294;5.152;2024-02-04T05:42:28;102297.72;;;7.27;81.87
51289;BME280;37372;52.294;5.152;2024-02-04T05:44:54;102300.34;;;7.27;81.71
51289;BME280;37372;52.294;5.152;2024-02-04T05:47:19;102311.75;;;7.29;82.09
51289;BME280;37372;52.294;5.152;2024-02-04T05:49:44;102299.34;;;7.23;82.78
51289;BME280;37372;52.294;5.152;2024-02-04T05:52:12;102290.59;;;7.23;82.72
51289;BME280;37372;52.294;5.152;2024-02-04T05:54:39;102291.50;;;7.23;82.94
51289;BME280;37372;52.294;5.152;2024-02-04T05:57:05;102283.59;;;7.22;83.09
51289;BME280;37372;52.294;5.152;2024-02-04T05:59:31;102267.50;;;7.33;81.71
51289;BME280;37372;52.294;5.152;2024-02-04T06:01:56;102269.94;;;7.29;82.85
51289;BME280;37372;52.294;5.152;2024-02-04T06:04:21;102262.94;;;7.28;82.28
51289;BME280;37372;52.294;5.152;2024-02-04T06:06:47;102278.72;;;7.31;82.84
51289;BME280;37372;52.294;5.152;2024-02-04T06:09:12;102277.53;;;7.23;82.88
51289;BME280;37372;52.294;5.152;2024-02-04T06:11:38;102273.28;;;7.25;82.68
51289;BME280;37372;52.294;5.152;2024-02-04T06:14:04;102273.28;;;7.25;82.92
51289;BME280;37372;52.294;5.152;2024-02-04T06:16:32;102262.78;;;7.23;82.72
51289;BME280;37372;52.294;5.152;2024-02-04T06:18:59;102267.22;;;7.26;82.47
51289;BME280;37372;52.294;5.152;2024-02-04T06:21:25;102261.09;;;7.25;82.35
51289;BME280;37372;52.294;5.152;2024-02-04T06:23:50;102245.53;;;7.28;82.46
51289;BME280;37372;52.294;5.152;2024-02-04T06:26:16;102244.91;;;7.34;82.37
51289;BME280;37372;52.294;5.152;2024-02-04T06:28:50;102259.56;;;7.30;82.61
51289;BME280;37372;52.294;5.152;2024-02-04T06:31:25;102256.88;;;7.29;82.55
51289;BME280;37372;52.294;5.152;2024-02-04T06:33:50;102245.59;;;7.30;82.54
51289;BME280;37372;52.294;5.152;2024-02-04T06:36:17;102255.28;;;7.32;82.55
51289;BME280;37372;52.294;5.152;2024-02-04T06:38:42;102265.97;;;7.39;82.31
51289;BME280;37372;52.294;5.152;2024-02-04T06:41:07;102251.09;;;7.38;82.36
51289;BME280;37372;52.294;5.152;2024-02-04T06:43:36;102247.50;;;7.34;82.71
51289;BME280;37372;52.294;5.152;2024-02-04T06:46:02;102248.63;;;7.41;82.64
51289;BME280;37372;52.294;5.152;2024-02-04T06:48:28;102253.09;;;7.43;82.98
51289;BME280;37372;52.294;5.152;2024-02-04T06:50:53;102257.75;;;7.52;82.48
51289;BME280;37372;52.294;5.152;2024-02-04T06:53:18;102243.53;;;7.44;83.56
51289;BME280;37372;52.294;5.152;2024-02-04T06:55:44;102236.50;;;7.43;83.93
51289;BME280;37372;52.294;5.152;2024-02-04T06:58:09;102235.97;;;7.52;83.53
51289;BME280;37372;52.294;5.152;2024-02-04T07:00:35;102233.47;;;7.55;83.26
51289;BME280;37372;52.294;5.152;2024-02-04T07:03:03;102226.28;;;7.49;83.56
51289;BME280;37372;52.294;5.152;2024-02-04T07:05:29;102228.25;;;7.55;83.73
51289;BME280;37372;52.294;5.152;2024-02-04T07:07:56;102223.63;;;7.47;84.30
51289;BME280;37372;52.294;5.152;2024-02-04T07:10:21;102219.47;;;7.53;84.48
51289;BME280;37372;52.294;5.152;2024-02-04T07:12:49;102224.94;;;7.59;84.31
51289;BME280;37372;52.294;5.152;2024-02-04T07:15:14;102223.50;;;7.67;83.83
51289;BME280;37372;52.294;5.152;2024-02-04T07:17:40;102218.13;;;7.64;84.44
51289;BME280;37372;52.294;5.152;2024-02-04T07:20:05;102218.47;;;7.73;84.06
51289;BME280;37372;52.294;5.152;2024-02-04T07:22:31;102224.66;;;7.75;84.37
51289;BME280;37372;52.294;5.152;2024-02-04T07:25:06;102217.22;;;7.86;83.90
51289;BME280;37372;52.294;5.152;2024-02-04T07:27:33;102229.28;;;7.82;84.68
51289;BME280;37372;52.294;5.152;2024-02-04T07:29:58;102233.47;;;8.02;83.90
51289;BME280;37372;52.294;5.152;2024-02-04T07:32:23;102227.94;;;7.94;84.60
51289;BME280;37372;52.294;5.152;2024-02-04T07:34:49;102240.34;;;7.99;84.72
51289;BME280;37372;52.294;5.152;2024-02-04T07:37:15;102239.72;;;8.05;84.46
51289;BME280;37372;52.294;5.152;2024-02-04T07:39:43;102229.66;;;8.18;84.10
51289;BME280;37372;52.294;5.152;2024-02-04T07:42:14;102231.41;;;8.17;84.38
51289;BME280;37372;52.294;5.152;2024-02-04T07:44:41;102221.09;;;8.22;84.06
51289;BME280;37372;52.294;5.152;2024-02-04T07:47:07;102225.53;;;8.24;83.77
51289;BME280;37372;52.294;5.152;2024-02-04T07:49:35;102223.88;;;8.26;83.75
51289;BME280;37372;52.294;5.152;2024-02-04T07:52:04;102219.69;;;8.31;82.97
51289;BME280;37372;52.294;5.152;2024-02-04T07:54:34;102217.41;;;8.41;82.56
51289;BME280;37372;52.294;5.152;2024-02-04T07:57:03;102223.50;;;8.41;82.43
51289;BME280;37372;52.294;5.152;2024-02-04T07:59:28;102230.53;;;8.42;82.20
51289;BME280;37372;52.294;5.152;2024-02-04T08:01:54;102216.53;;;8.42;82.33
51289;BME280;37372;52.294;5.152;2024-02-04T08:04:19;102218.97;;;8.36;82.76
51289;BME280;37372;52.294;5.152;2024-02-04T08:06:47;102217.22;;;8.36;82.21
51289;BME280;37372;52.294;5.152;2024-02-04T08:09:22;102219.00;;;8.37;82.14
51289;BME280;37372;52.294;5.152;2024-02-04T08:11:48;102217.22;;;8.36;82.09
51289;BME280;37372;52.294;5.152;2024-02-04T08:14:13;102216.34;;;8.36;82.21
51289;BME280;37372;52.294;5.152;2024-02-04T08:16:42;102222.56;;;8.39;82.29
51289;BME280;37372;52.294;5.152;2024-02-04T08:19:08;102219.94;;;8.39;81.87
51289;BME280;37372;52.294;5.152;2024-02-04T08:21:36;102221.41;;;8.31;82.21
51289;BME280;37372;52.294;5.152;2024-02-04T08:24:05;102224.84;;;8.30;82.19
51289;BME280;37372;52.294;5.152;2024-02-04T08:26:34;102223.97;;;8.29;82.34
51289;BME280;37372;52.294;5.152;2024-02-04T08:28:59;102221.41;;;8.31;82.04
51289;BME280;37372;52.294;5.152;2024-02-04T08:31:25;102217.22;;;8.36;81.69
51289;BME280;37372;52.294;5.152;2024-02-04T08:33:50;102219.00;;;8.37;81.08
51289;BME280;37372;52.294;5.152;2024-02-04T08:36:16;102210.94;;;8.31;81.37
51289;BME280;37372;52.294;5.152;2024-02-04T08:38:44;102191.69;;;8.29;81.74
51289;BME280;37372;52.294;5.152;2024-02-04T08:41:13;102194.50;;;8.35;81.55
51289;BME280;37372;52.294;5.152;2024-02-04T08:43:48;102192.09;;;8.41;81.75
51289;BME280;37372;52.294;5.152;2024-02-04T08:46:13;102189.47;;;8.41;81.74
51289;BME280;37372;52.294;5.152;2024-02-04T08:48:38;102183.28;;;8.39;81.84
51289;BME280;37372;52.294;5.152;2024-02-04T08:51:04;102187.38;;;8.31;82.89
51289;BME280;37372;52.294;5.152;2024-02-04T08:53:35;102183.28;;;8.39;82.88
51289;BME280;37372;52.294;5.152;2024-02-04T08:56:01;102168.63;;;8.44;82.89
51289;BME280;37372;52.294;5.152;2024-02-04T08:58:26;102182.97;;;8.54;82.77
51289;BME280;37372;52.294;5.152;2024-02-04T09:00:52;102173.28;;;8.52;83.11
51289;BME280;37372;52.294;5.152;2024-02-04T09:03:17;102176.69;;;8.49;83.87
51289;BME280;37372;52.294;5.152;2024-02-04T09:05:43;102178.63;;;8.55;83.45
51289;BME280;37372;52.294;5.152;2024-02-04T09:08:08;102170.75;;;8.55;83.49
51289;BME280;37372;52.294;5.152;2024-02-04T09:10:33;102186.88;;;8.67;83.39
51289;BME280;37372;52.294;5.152;2024-02-04T09:12:59;102195.63;;;8.68;83.61
51289;BME280;37372;52.294;5.152;2024-02-04T09:15:24;102207.19;;;8.74;83.57
51289;BME280;37372;52.294;5.152;2024-02-04T09:17:50;102211.09;;;8.87;82.85
51289;BME280;37372;52.294;5.152;2024-02-04T09:20:18;102217.97;;;8.83;82.98
51289;BME280;37372;52.294;5.152;2024-02-04T09:22:43;102214.63;;;8.89;82.56
51289;BME280;37372;52.294;5.152;2024-02-04T09:25:12;102209.03;;;9.04;82.17
51289;BME280;37372;52.294;5.152;2024-02-04T09:27:39;102210.59;;;8.99;82.17
51289;BME280;37372;52.294;5.152;2024-02-04T09:30:06;102205.19;;;8.94;82.52
51289;BME280;37372;52.294;5.152;2024-02-04T09:32:41;102213.50;;;9.08;82.04
51289;BME280;37372;52.294;5.152;2024-02-04T09:35:07;102202.19;;;9.09;81.93
51289;BME280;37372;52.294;5.152;2024-02-04T09:37:54;102201.41;;;9.12;81.69
51289;BME280;37372;52.294;5.152;2024-02-04T09:40:19;102200.44;;;9.10;81.99
51289;BME280;37372;52.294;5.152;2024-02-04T09:42:44;102202.38;;;9.15;81.52
51289;BME280;37372;52.294;5.152;2024-02-04T09:45:12;102193.53;;;9.12;81.64
51289;BME280;37372;52.294;5.152;2024-02-04T09:47:42;102179.72;;;9.18;81.63
51289;BME280;37372;52.294;5.152;2024-02-04T09:50:07;102184.94;;;9.16;81.18
51289;BME280;37372;52.294;5.152;2024-02-04T09:52:39;102196.84;;;9.35;80.81
51289;BME280;37372;52.294;5.152;2024-02-04T09:55:07;102204.34;;;9.23;80.71
51289;BME280;37372;52.294;5.152;2024-02-04T09:57:45;102186.31;;;9.33;80.37
51289;BME280;37372;52.294;5.152;2024-02-04T10:00:11;102193.31;;;9.33;80.45
51289;BME280;37372;52.294;5.152;2024-02-04T10:02:43;102191.47;;;9.30;80.41
51289;BME280;37372;52.294;5.152;2024-02-04T10:05:20;102200.16;;;9.28;80.58
51289;BME280;37372;52.294;5.152;2024-02-04T10:07:46;102195.50;;;9.19;80.66
51289;BME280;37372;52.294;5.152;2024-02-04T10:10:11;102189.84;;;9.36;79.88
51289;BME280;37372;52.294;5.152;2024-02-04T10:12:37;102190.63;;;9.31;80.17
51289;BME280;37372;52.294;5.152;2024-02-04T10:15:07;102190.78;;;9.36;79.70
51289;BME280;37372;52.294;5.152;2024-02-04T10:17:33;102204.06;;;9.42;79.74
51289;BME280;37372;52.294;5.152;2024-02-04T10:20:00;102195.25;;;9.40;78.92
51289;BME280;37372;52.294;5.152;2024-02-04T10:22:26;102196.94;;;9.38;79.10
51289;BME280;37372;52.294;5.152;2024-02-04T10:25:05;102200.78;;;9.49;78.89
51289;BME280;37372;52.294;5.152;2024-02-04T10:27:31;102201.53;;;9.45;78.74
51289;BME280;37372;52.294;5.152;2024-02-04T10:29:56;102197.91;;;9.42;79.20
51289;BME280;37372;52.294;5.152;2024-02-04T10:32:22;102205.81;;;9.43;79.23
51289;BME280;37372;52.294;5.152;2024-02-04T10:34:48;102195.84;;;9.31;79.53
51289;BME280;37372;52.294;5.152;2024-02-04T10:37:14;102196.78;;;9.32;79.06
51289;BME280;37372;52.294;5.152;2024-02-04T10:39:42;102198.13;;;9.48;79.25
51289;BME280;37372;52.294;5.152;2024-02-04T10:42:08;102192.81;;;9.46;78.92
51289;BME280;37372;52.294;5.152;2024-02-04T10:44:35;102196.22;;;9.42;79.65
51289;BME280;37372;52.294;5.152;2024-02-04T10:47:05;102204.28;;;9.50;79.97
51289;BME280;37372;52.294;5.152;2024-02-04T10:49:33;102210.19;;;9.43;80.63
51289;BME280;37372;52.294;5.152;2024-02-04T10:52:00;102213.00;;;9.49;80.18
51289;BME280;37372;52.294;5.152;2024-02-04T10:54:30;102215.44;;;9.43;80.82
51289;BME280;37372;52.294;5.152;2024-02-04T10:57:02;102228.31;;;9.35;81.35
51289;BME280;37372;52.294;5.152;2024-02-04T10:59:32;102225.72;;;9.37;81.38
51289;BME280;37372;52.294;5.152;2024-02-04T11:02:01;102220.38;;;9.32;81.73
51289;BME280;37372;52.294;5.152;2024-02-04T11:04:31;102217.59;;;9.27;81.82
51289;BME280;37372;52.294;5.152;2024-02-04T11:07:00;102209.72;;;9.27;82.18
51289;BME280;37372;52.294;5.152;2024-02-04T11:09:26;102205.94;;;9.18;82.50
51289;BME280;37372;52.294;5.152;2024-02-04T11:12:06;102215.38;;;9.12;82.75
51289;BME280;37372;52.294;5.152;2024-02-04T11:14:35;102222.41;;;9.13;82.74
51289;BME280;37372;52.294;5.152;2024-02-04T11:27:50;102208.16;;;9.05;84.65
51289;BME280;37372;52.294;5.152;2024-02-04T11:30:15;102206.41;;;9.04;84.90
51289;BME280;37372;52.294;5.152;2024-02-04T11:32:41;102193.38;;;9.07;85.12
51289;BME280;37372;52.294;5.152;2024-02-04T11:35:08;102178.78;;;9.15;85.34
51289;BME280;37372;52.294;5.152;2024-02-04T11:37:34;102180.66;;;9.20;85.75
51289;BME280;37372;52.294;5.152;2024-02-04T11:40:06;102188.34;;;9.13;85.89
51289;BME280;37372;52.294;5.152;2024-02-04T11:42:34;102180.38;;;9.10;85.86
51289;BME280;37372;52.294;5.152;2024-02-04T11:45:11;102179.69;;;9.16;86.09
51289;BME280;37372;52.294;5.152;2024-02-04T11:47:42;102167.66;;;9.23;85.97
51289;BME280;37372;52.294;5.152;2024-02-04T11:50:27;102181.31;;;9.41;85.00
51289;BME280;37372;52.294;5.152;2024-02-04T11:53:12;102177.47;;;9.30;85.08
51289;BME280;37372;52.294;5.152;2024-02-04T11:55:41;102186.75;;;9.19;85.52
51289;BME280;37372;52.294;5.152;2024-02-04T11:58:18;102177.34;;;9.25;85.02
51289;BME280;37372;52.294;5.152;2024-02-04T12:00:43;102174.72;;;9.25;85.71
51289;BME280;37372;52.294;5.152;2024-02-04T12:03:13;102164.47;;;9.04;85.53
51289;BME280;37372;52.294;5.152;2024-02-04T12:05:38;102157.44;;;9.03;85.75
51289;BME280;37372;52.294;5.152;2024-02-04T12:08:14;102171.59;;;9.08;85.38
51289;BME280;37372;52.294;5.152;2024-02-04T12:10:43;102171.47;;;9.05;85.36
51289;BME280;37372;52.294;5.152;2024-02-04T12:13:15;102169.59;;;9.01;85.50
51289;BME280;37372;52.294;5.152;2024-02-04T12:15:41;102152.25;;;9.05;85.62
51289;BME280;37372;52.294;5.152;2024-02-04T12:18:11;102145.16;;;9.01;85.48
51289;BME280;37372;52.294;5.152;2024-02-04T12:20:49;102139.13;;;9.03;85.92
51289;BME280;37372;52.294;5.152;2024-02-04T12:23:19;102152.63;;;9.17;85.46
51289;BME280;37372;52.294;5.152;2024-02-04T12:25:58;102140.63;;;9.24;84.89
51289;BME280;37372;52.294;5.152;2024-02-04T12:28:27;102144.94;;;9.23;84.88
51289;BME280;37372;52.294;5.152;2024-02-04T12:30:53;102143.31;;;9.27;85.03
51289;BME280;37372;52.294;5.152;2024-02-04T12:33:23;102144.50;;;9.38;84.20
51289;BME280;37372;52.294;5.152;2024-02-04T12:36:01;102148.69;;;9.31;84.11
51289;BME280;37372;52.294;5.152;2024-02-04T12:38:44;102155.34;;;9.20;84.36
51289;BME280;37372;52.294;5.152;2024-02-04T12:41:14;102145.66;;;9.18;84.49
51289;BME280;37372;52.294;5.152;2024-02-04T12:43:49;102140.41;;;9.18;84.11
51289;BME280;37372;52.294;5.152;2024-02-04T12:46:14;102129.94;;;9.18;84.40
51289;BME280;37372;52.294;5.152;2024-02-04T12:48:39;102125.41;;;9.12;84.81
51289;BME280;37372;52.294;5.152;2024-02-04T12:51:05;102118.16;;;9.03;85.21
51289;BME280;37372;52.294;5.152;2024-02-04T12:53:33;102120.84;;;9.06;84.92
51289;BME280;37372;52.294;5.152;2024-02-04T12:56:02;102120.03;;;9.07;84.61
51289;BME280;37372;52.294;5.152;2024-02-04T12:58:27;102133.13;;;9.07;85.03
51289;BME280;37372;52.294;5.152;2024-02-04T13:01:00;102141.84;;;9.08;84.84
51289;BME280;37372;52.294;5.152;2024-02-04T13:03:46;102146.19;;;9.06;84.63
51289;BME280;37372;52.294;5.152;2024-02-04T13:06:15;102131.25;;;9.03;84.66
51289;BME280;37372;52.294;5.152;2024-02-04T13:08:41;102127.16;;;9.13;84.13
51289;BME280;37372;52.294;5.152;2024-02-04T13:11:26;102126.38;;;9.15;84.00
51289;BME280;37372;52.294;5.152;2024-02-04T13:13:52;102116.06;;;9.22;84.15
51289;BME280;37372;52.294;5.152;2024-02-04T13:16:18;102110.13;;;9.27;83.77